createdAt,value
2023-04-03T00:00:02.569Z,595.00
2023-04-03T00:01:02.571Z,601.00
2023-04-03T00:02:02.566Z,603.00
2023-04-03T00:03:02.562Z,598.00
2023-04-03T00:04:02.599Z,606.00
2023-04-03T00:05:02.501Z,603.00
2023-04-03T00:06:02.478Z,602.00
2023-04-03T00:07:02.483Z,601.00
2023-04-03T00:08:02.486Z,600.00
2023-04-03T00:09:02.488Z,608.00
2023-04-03T00:10:02.469Z,607.00
2023-04-03T00:11:02.452Z,604.00
2023-04-03T00:12:02.433Z,608.00
2023-04-03T00:13:02.448Z,599.00
2023-04-03T00:14:02.408Z,607.00
2023-04-03T00:15:02.392Z,609.00
2023-04-03T00:16:02.385Z,602.00
2023-04-03T00:17:02.439Z,599.00
2023-04-03T00:18:02.402Z,601.00
2023-04-03T00:19:02.352Z,603.00
2023-04-03T00:20:02.345Z,597.00
2023-04-03T00:21:02.316Z,605.00
2023-04-03T00:22:02.313Z,603.00
2023-04-03T00:23:02.297Z,605.00
2023-04-03T00:24:02.285Z,601.00
2023-04-03T00:25:02.306Z,603.00
2023-04-03T00:26:02.269Z,598.00
2023-04-03T00:27:02.241Z,602.00
2023-04-03T00:28:02.240Z,600.00
2023-04-03T00:29:02.218Z,602.00
2023-04-03T00:30:02.217Z,604.00
2023-04-03T00:31:02.237Z,604.00
2023-04-03T00:32:02.158Z,605.00
2023-04-03T00:33:02.169Z,603.00
2023-04-03T00:34:02.126Z,602.00
2023-04-03T00:35:02.107Z,598.00
2023-04-03T00:36:02.155Z,605.00
2023-04-03T00:37:02.180Z,604.00
2023-04-03T00:38:02.065Z,608.00
2023-04-03T00:39:02.035Z,606.00
2023-04-03T00:40:02.110Z,605.00
2023-04-03T00:41:02.044Z,602.00
2023-04-03T00:42:02.042Z,603.00
2023-04-03T00:43:02.044Z,601.00
2023-04-03T00:44:02.064Z,609.00
2023-04-03T00:45:02.069Z,603.00
2023-04-03T00:46:02.122Z,607.00
2023-04-03T00:47:02.079Z,611.00
2023-04-03T00:48:02.118Z,610.00
2023-04-03T00:49:02.110Z,601.00
2023-04-03T00:50:02.097Z,610.00
2023-04-03T00:51:02.108Z,602.00
2023-04-03T00:52:02.145Z,602.00
2023-04-03T00:53:02.134Z,607.00
2023-04-03T00:54:02.222Z,606.00
2023-04-03T00:55:02.153Z,604.00
2023-04-03T00:56:02.169Z,608.00
2023-04-03T00:57:02.220Z,605.00
2023-04-03T00:58:02.168Z,603.00
2023-04-03T00:59:02.170Z,607.00
2023-04-03T01:00:02.169Z,610.00
2023-04-03T01:01:02.184Z,601.00
2023-04-03T01:02:02.275Z,604.00
2023-04-03T01:03:02.243Z,603.00
2023-04-03T01:04:02.265Z,607.00
2023-04-03T01:05:02.274Z,605.00
2023-04-03T01:06:02.222Z,608.00
2023-04-03T01:07:02.278Z,609.00
2023-04-03T01:08:02.236Z,609.00
2023-04-03T01:09:02.295Z,609.00
2023-04-03T01:10:02.368Z,607.00
2023-04-03T01:11:02.286Z,608.00
2023-04-03T01:12:02.273Z,604.00
2023-04-03T01:13:02.300Z,607.00
2023-04-03T01:14:02.299Z,606.00
2023-04-03T01:15:02.342Z,605.00
2023-04-03T01:16:02.380Z,604.00
2023-04-03T01:17:02.316Z,605.00
2023-04-03T01:18:02.340Z,608.00
2023-04-03T01:19:02.330Z,609.00
2023-04-03T01:20:02.363Z,606.00
2023-04-03T01:21:02.333Z,604.00
2023-04-03T01:22:02.344Z,606.00
2023-04-03T01:23:02.356Z,606.00
2023-04-03T01:24:02.353Z,609.00
2023-04-03T01:25:02.371Z,611.00
2023-04-03T01:26:02.390Z,605.00
2023-04-03T01:27:02.387Z,606.00
2023-04-03T01:28:02.387Z,606.00
2023-04-03T01:29:02.358Z,606.00
2023-04-03T01:30:02.366Z,607.00
2023-04-03T01:31:02.361Z,608.00
2023-04-03T01:33:05.494Z,500.00
2023-04-03T01:34:05.469Z,500.00
2023-04-03T01:35:05.455Z,500.00
2023-04-03T01:36:05.466Z,500.00
2023-04-03T01:37:05.439Z,500.00
2023-04-03T01:38:05.420Z,501.00
2023-04-03T01:39:05.416Z,502.00
2023-04-03T01:40:05.407Z,506.00
2023-04-03T01:41:05.404Z,507.00
2023-04-03T01:42:05.389Z,507.00
2023-04-03T01:43:05.388Z,505.00
2023-04-03T01:44:05.351Z,500.00
2023-04-03T01:45:05.363Z,503.00
2023-04-03T01:46:05.386Z,503.00
2023-04-03T01:47:05.338Z,501.00
2023-04-03T01:48:05.320Z,504.00
2023-04-03T01:49:05.303Z,503.00
2023-04-03T01:50:05.282Z,509.00
2023-04-03T01:51:05.274Z,506.00
2023-04-03T01:52:05.252Z,509.00
2023-04-03T01:53:05.254Z,506.00
2023-04-03T01:54:05.251Z,505.00
2023-04-03T01:55:05.226Z,505.00
2023-04-03T01:56:05.221Z,503.00
2023-04-03T01:57:05.247Z,508.00
2023-04-03T01:58:05.196Z,505.00
2023-04-03T01:59:05.197Z,503.00
2023-04-03T02:00:05.186Z,503.00
2023-04-03T02:01:05.260Z,503.00
2023-04-03T02:02:05.159Z,505.00
2023-04-03T02:03:05.233Z,504.00
2023-04-03T02:04:05.204Z,511.00
2023-04-03T02:05:05.141Z,509.00
2023-04-03T02:06:05.147Z,503.00
2023-04-03T02:07:05.116Z,508.00
2023-04-03T02:08:05.114Z,507.00
2023-04-03T02:09:05.109Z,509.00
2023-04-03T02:10:05.085Z,508.00
2023-04-03T02:11:05.087Z,506.00
2023-04-03T02:12:05.060Z,506.00
2023-04-03T02:13:05.057Z,508.00
2023-04-03T02:14:05.166Z,509.00
2023-04-03T02:15:05.052Z,508.00
2023-04-03T02:16:05.023Z,507.00
2023-04-03T02:17:05.011Z,509.00
2023-04-03T02:18:07.761Z,506.00
2023-04-03T02:19:04.994Z,513.00
2023-04-03T02:20:04.988Z,509.00
2023-04-03T02:21:04.957Z,508.00
2023-04-03T02:22:04.946Z,508.00
2023-04-03T02:23:04.929Z,511.00
2023-04-03T02:24:04.928Z,502.00
2023-04-03T02:25:04.907Z,505.00
2023-04-03T02:26:04.878Z,506.00
2023-04-03T02:27:04.868Z,510.00
2023-04-03T02:28:04.859Z,504.00
2023-04-03T02:29:04.835Z,509.00
2023-04-03T02:30:04.816Z,504.00
2023-04-03T02:31:04.819Z,506.00
2023-04-03T02:32:04.806Z,511.00
2023-04-03T02:33:04.832Z,503.00
2023-04-03T02:34:04.765Z,506.00
2023-04-03T02:35:04.743Z,502.00
2023-04-03T02:36:04.763Z,503.00
2023-04-03T02:37:04.718Z,505.00
2023-04-03T02:38:04.715Z,506.00
2023-04-03T02:39:04.688Z,507.00
2023-04-03T02:40:04.682Z,507.00
2023-04-03T02:41:04.673Z,510.00
2023-04-03T02:42:04.652Z,505.00
2023-04-03T02:43:04.630Z,509.00
2023-04-03T02:44:04.619Z,509.00
2023-04-03T02:45:04.621Z,509.00
2023-04-03T02:46:04.641Z,505.00
2023-04-03T02:47:04.582Z,506.00
2023-04-03T02:48:04.662Z,508.00
2023-04-03T02:49:04.561Z,509.00
2023-04-03T02:50:04.717Z,508.00
2023-04-03T02:51:04.539Z,511.00
2023-04-03T02:52:04.527Z,503.00
2023-04-03T02:53:04.503Z,500.00
2023-04-03T02:54:04.498Z,506.00
2023-04-03T02:55:04.530Z,510.00
2023-04-03T02:56:04.477Z,505.00
2023-04-03T02:57:04.500Z,508.00
2023-04-03T02:58:04.455Z,501.00
2023-04-03T02:59:04.450Z,502.00
2023-04-03T03:00:04.449Z,502.00
2023-04-03T03:01:04.411Z,503.00
2023-04-03T03:02:04.440Z,505.00
2023-04-03T03:03:04.466Z,508.00
2023-04-03T03:04:04.392Z,506.00
2023-04-03T03:05:04.418Z,508.00
2023-04-03T03:06:04.352Z,514.00
2023-04-03T03:07:04.328Z,510.00
2023-04-03T03:08:04.325Z,508.00
2023-04-03T03:09:04.308Z,506.00
2023-04-03T03:10:04.300Z,510.00
2023-04-03T03:11:04.293Z,504.00
2023-04-03T03:12:04.267Z,506.00
2023-04-03T03:13:04.261Z,508.00
2023-04-03T03:14:04.255Z,504.00
2023-04-03T03:15:04.240Z,508.00
2023-04-03T03:16:04.262Z,504.00
2023-04-03T03:17:04.196Z,509.00
2023-04-03T03:18:04.205Z,505.00
2023-04-03T03:19:04.178Z,503.00
2023-04-03T03:20:04.166Z,508.00
2023-04-03T03:21:04.198Z,510.00
2023-04-03T03:22:04.155Z,508.00
2023-04-03T03:23:04.135Z,500.00
2023-04-03T03:24:04.107Z,505.00
2023-04-03T03:25:04.113Z,507.00
2023-04-03T03:26:04.084Z,504.00
2023-04-03T03:27:04.069Z,508.00
2023-04-03T03:28:04.059Z,506.00
2023-04-03T03:29:04.039Z,506.00
2023-04-03T03:30:04.023Z,505.00
2023-04-03T03:31:04.060Z,507.00
2023-04-03T03:32:03.995Z,506.00
2023-04-03T03:33:04.010Z,510.00
2023-04-03T03:34:03.960Z,500.00
2023-04-03T03:35:03.951Z,509.00
2023-04-03T03:36:04.008Z,508.00
2023-04-03T03:37:03.920Z,505.00
2023-04-03T03:38:03.905Z,504.00
2023-04-03T03:39:03.881Z,509.00
2023-04-03T03:40:03.864Z,510.00
2023-04-03T03:41:03.850Z,510.00
2023-04-03T03:42:03.823Z,510.00
2023-04-03T03:43:03.801Z,511.00
2023-04-03T03:44:03.798Z,511.00
2023-04-03T03:45:03.773Z,511.00
2023-04-03T03:46:03.794Z,512.00
2023-04-03T03:47:03.741Z,508.00
2023-04-03T03:48:03.742Z,512.00
2023-04-03T03:49:03.728Z,502.00
2023-04-03T03:50:03.710Z,507.00
2023-04-03T03:51:03.706Z,510.00
2023-04-03T03:52:03.695Z,512.00
2023-04-03T03:53:03.677Z,510.00
2023-04-03T03:54:03.662Z,502.00
2023-04-03T03:55:03.642Z,506.00
2023-04-03T03:56:03.650Z,503.00
2023-04-03T03:57:03.654Z,498.00
2023-04-03T03:58:03.617Z,506.00
2023-04-03T03:59:03.615Z,504.00
2023-04-03T04:00:03.588Z,506.00
2023-04-03T04:01:03.572Z,512.00
2023-04-03T04:02:03.598Z,511.00
2023-04-03T04:03:03.618Z,500.00
2023-04-03T04:04:03.598Z,505.00
2023-04-03T04:05:03.547Z,507.00
2023-04-03T04:06:03.526Z,512.00
2023-04-03T04:07:03.505Z,504.00
2023-04-03T04:08:03.482Z,501.00
2023-04-03T04:09:03.474Z,499.00
2023-04-03T04:10:03.469Z,501.00
2023-04-03T04:11:03.453Z,509.00
2023-04-03T04:12:03.459Z,516.00
2023-04-03T04:13:03.420Z,515.00
2023-04-03T04:14:03.412Z,504.00
2023-04-03T04:15:03.418Z,508.00
2023-04-03T04:16:03.393Z,516.00
2023-04-03T04:17:03.567Z,519.00
2023-04-03T04:18:03.440Z,524.00
2023-04-03T04:19:03.361Z,514.00
2023-04-03T04:20:03.338Z,500.00
2023-04-03T04:21:03.336Z,508.00
2023-04-03T04:22:03.335Z,508.00
2023-04-03T04:23:03.332Z,514.00
2023-04-03T04:24:03.339Z,511.00
2023-04-03T04:25:03.392Z,499.00
2023-04-03T04:26:03.360Z,507.00
2023-04-03T04:27:03.376Z,505.00
2023-04-03T04:28:03.378Z,507.00
2023-04-03T04:29:03.395Z,507.00
2023-04-03T04:30:03.400Z,511.00
2023-04-03T04:31:03.441Z,505.00
2023-04-03T04:32:03.421Z,503.00
2023-04-03T04:33:03.513Z,509.00
2023-04-03T04:34:03.434Z,520.00
2023-04-03T04:35:03.475Z,523.00
2023-04-03T04:36:03.630Z,509.00
2023-04-03T04:37:03.640Z,504.00
2023-04-03T04:38:03.486Z,505.00
2023-04-03T04:39:03.477Z,511.00
2023-04-03T04:40:03.504Z,518.00
2023-04-03T04:41:03.498Z,522.00
2023-04-03T04:42:03.526Z,510.00
2023-04-03T04:43:03.514Z,500.00
2023-04-03T04:44:03.539Z,508.00
2023-04-03T04:45:03.558Z,513.00
2023-04-03T04:46:03.593Z,519.00
2023-04-03T04:47:03.550Z,509.00
2023-04-03T04:48:03.583Z,507.00
2023-04-03T04:49:03.578Z,507.00
2023-04-03T04:50:03.583Z,505.00
2023-04-03T04:51:03.641Z,506.00
2023-04-03T04:52:03.617Z,516.00
2023-04-03T04:53:03.613Z,507.00
2023-04-03T04:54:03.626Z,502.00
2023-04-03T04:55:03.634Z,511.00
2023-04-03T04:56:03.664Z,519.00
2023-04-03T04:57:03.697Z,531.00
2023-04-03T04:58:03.681Z,512.00
2023-04-03T04:59:03.690Z,500.00
2023-04-03T05:00:03.696Z,500.00
2023-04-03T05:01:03.745Z,504.00
2023-04-03T05:02:03.818Z,511.00
2023-04-03T05:03:03.904Z,518.00
2023-04-03T05:04:03.788Z,508.00
2023-04-03T05:05:05.117Z,507.00
2023-04-03T05:06:03.829Z,506.00
2023-04-03T05:07:03.857Z,521.00
2023-04-03T05:08:03.877Z,528.00
2023-04-03T05:09:03.882Z,511.00
2023-04-03T05:10:03.923Z,500.00
2023-04-03T05:11:03.904Z,506.00
2023-04-03T05:12:03.957Z,507.00
2023-04-03T05:13:03.930Z,509.00
2023-04-03T05:14:03.960Z,521.00
2023-04-03T05:15:03.972Z,507.00
2023-04-03T05:16:04.036Z,507.00
2023-04-03T05:17:04.017Z,508.00
2023-04-03T05:18:04.038Z,521.00
2023-04-03T05:19:04.048Z,533.00
2023-04-03T05:20:04.064Z,510.00
2023-04-03T05:21:04.077Z,504.00
2023-04-03T05:22:04.123Z,502.00
2023-04-03T05:23:04.122Z,512.00
2023-04-03T05:24:04.137Z,530.00
2023-04-03T05:25:04.158Z,512.00
2023-04-03T05:26:04.154Z,509.00
2023-04-03T05:27:04.169Z,507.00
2023-04-03T05:28:04.207Z,519.00
2023-04-03T05:29:04.207Z,521.00
2023-04-03T05:30:04.240Z,528.00
2023-04-03T05:31:04.236Z,511.00
2023-04-03T05:32:04.269Z,501.00
2023-04-03T05:33:04.309Z,508.00
2023-04-03T05:34:04.300Z,522.00
2023-04-03T05:35:04.306Z,526.00
2023-04-03T05:36:04.352Z,523.00
2023-04-03T05:37:04.341Z,516.00
2023-04-03T05:38:04.353Z,514.00
2023-04-03T05:39:04.375Z,525.00
2023-04-03T05:40:04.401Z,527.00
2023-04-03T05:41:04.409Z,526.00
2023-04-03T05:42:04.454Z,516.00
2023-04-03T05:43:04.450Z,514.00
2023-04-03T05:44:04.487Z,513.00
2023-04-03T05:45:04.485Z,523.00
2023-04-03T05:46:04.545Z,529.00
2023-04-03T05:47:04.539Z,528.00
2023-04-03T05:48:04.609Z,506.00
2023-04-03T05:49:04.679Z,512.00
2023-04-03T05:50:04.612Z,517.00
2023-04-03T05:51:04.599Z,517.00
2023-04-03T05:52:04.604Z,518.00
2023-04-03T05:53:04.632Z,520.00
2023-04-03T05:54:04.581Z,513.00
2023-04-03T05:55:04.579Z,513.00
2023-04-03T05:56:04.598Z,519.00
2023-04-03T05:57:04.722Z,533.00
2023-04-03T05:58:04.568Z,534.00
2023-04-03T05:59:04.554Z,517.00
2023-04-03T06:00:04.567Z,506.00
2023-04-03T06:01:04.598Z,506.00
2023-04-03T06:02:04.548Z,508.00
2023-04-03T06:03:04.710Z,512.00
2023-04-03T06:04:04.698Z,523.00
2023-04-03T06:05:04.632Z,515.00
2023-04-03T06:06:04.520Z,515.00
2023-04-03T06:07:04.561Z,511.00
2023-04-03T06:08:04.497Z,522.00
2023-04-03T06:09:04.486Z,529.00
2023-04-03T06:10:04.477Z,515.00
2023-04-03T06:11:04.476Z,509.00
2023-04-03T06:12:04.531Z,505.00
2023-04-03T06:13:04.509Z,513.00
2023-04-03T06:14:04.570Z,511.00
2023-04-03T06:15:04.480Z,517.00
2023-04-03T06:16:04.505Z,504.00
2023-04-03T06:17:04.537Z,504.00
2023-04-03T06:18:04.644Z,510.00
2023-04-03T06:19:04.608Z,519.00
2023-04-03T06:20:04.580Z,531.00
2023-04-03T06:21:04.623Z,523.00
2023-04-03T06:22:04.663Z,512.00
2023-04-03T06:23:05.779Z,505.00
2023-04-03T06:24:04.692Z,508.00
2023-04-03T06:25:04.722Z,513.00
2023-04-03T06:26:04.755Z,520.00
2023-04-03T06:27:04.763Z,511.00
2023-04-03T06:28:04.772Z,507.00
2023-04-03T06:29:04.808Z,510.00
2023-04-03T06:30:04.816Z,523.00
2023-04-03T06:31:04.882Z,532.00
2023-04-03T06:32:04.907Z,531.00
2023-04-03T06:33:04.942Z,514.00
2023-04-03T06:34:06.181Z,504.00
2023-04-03T06:35:04.969Z,507.00
2023-04-03T06:36:05.037Z,519.00
2023-04-03T06:37:04.986Z,529.00
2023-04-03T06:38:05.005Z,516.00
2023-04-03T06:39:05.028Z,513.00
2023-04-03T06:40:05.075Z,513.00
2023-04-03T06:41:05.064Z,517.00
2023-04-03T06:42:05.091Z,519.00
2023-04-03T06:43:05.115Z,524.00
2023-04-03T06:44:05.145Z,511.00
2023-04-03T06:45:05.161Z,503.00
2023-04-03T06:46:05.202Z,503.00
2023-04-03T06:47:05.187Z,515.00
2023-04-03T06:48:05.249Z,524.00
2023-04-03T06:49:05.208Z,522.00
2023-04-03T06:50:05.243Z,506.00
2023-04-03T06:51:05.267Z,507.00
2023-04-03T06:52:05.279Z,511.00
2023-04-03T06:53:05.305Z,520.00
2023-04-03T06:54:05.317Z,525.00
2023-04-03T06:55:05.357Z,512.00
2023-04-03T06:56:05.359Z,512.00
2023-04-03T06:57:05.401Z,502.00
2023-04-03T06:58:05.385Z,510.00
2023-04-03T06:59:05.676Z,524.00
2023-04-03T07:00:05.397Z,521.00
2023-04-03T07:01:05.428Z,508.00
2023-04-03T07:02:05.584Z,505.00
2023-04-03T07:03:05.527Z,509.00
2023-04-03T07:04:05.470Z,508.00
2023-04-03T07:05:05.506Z,518.00
2023-04-03T07:06:05.540Z,523.00
2023-04-03T07:07:05.512Z,510.00
2023-04-03T07:08:05.561Z,512.00
2023-04-03T07:09:05.553Z,519.00
2023-04-03T07:10:05.580Z,526.00
2023-04-03T07:11:05.584Z,529.00
2023-04-03T07:12:05.616Z,514.00
2023-04-03T07:13:05.631Z,504.00
2023-04-03T07:14:05.733Z,513.00
2023-04-03T07:15:05.682Z,513.00
2023-04-03T07:16:05.792Z,518.00
2023-04-03T07:17:05.704Z,520.00
2023-04-03T07:18:05.804Z,510.00
2023-04-03T07:19:05.750Z,505.00
2023-04-03T07:20:05.768Z,510.00
2023-04-03T07:21:05.854Z,522.00
2023-04-03T07:22:05.801Z,530.00
2023-04-03T07:23:05.843Z,513.00
2023-04-03T07:24:05.884Z,503.00
2023-04-03T07:25:05.873Z,503.00
2023-04-03T07:26:05.882Z,517.00
2023-04-03T07:27:05.917Z,519.00
2023-04-03T07:28:05.920Z,514.00
2023-04-03T07:29:06.015Z,508.00
2023-04-03T07:30:06.000Z,503.00
2023-04-03T07:31:05.990Z,518.00
2023-04-03T07:32:06.093Z,531.00
2023-04-03T07:33:06.092Z,524.00
2023-04-03T07:34:06.031Z,511.00
2023-04-03T07:35:06.091Z,501.00
2023-04-03T07:36:06.274Z,510.00
2023-04-03T07:37:06.103Z,522.00
2023-04-03T07:38:06.135Z,531.00
2023-04-03T07:39:06.153Z,514.00
2023-04-03T07:40:06.185Z,512.00
2023-04-03T07:41:06.186Z,511.00
2023-04-03T07:42:06.224Z,526.00
2023-04-03T07:43:06.247Z,535.00
2023-04-03T07:44:06.259Z,515.00
2023-04-03T07:45:06.255Z,509.00
2023-04-03T07:46:06.338Z,503.00
2023-04-03T07:47:06.300Z,515.00
2023-04-03T07:48:06.301Z,519.00
2023-04-03T07:49:06.307Z,527.00
2023-04-03T07:50:06.486Z,515.00
2023-04-03T07:51:06.336Z,510.00
2023-04-03T07:52:06.354Z,517.00
2023-04-03T07:53:06.381Z,528.00
2023-04-03T07:54:06.385Z,535.00
2023-04-03T07:55:06.415Z,514.00
2023-04-03T07:56:06.421Z,505.00
2023-04-03T07:57:06.429Z,508.00
2023-04-03T07:58:06.451Z,509.00
2023-04-03T07:59:06.457Z,527.00
2023-04-03T08:00:06.455Z,514.00
2023-04-03T08:01:06.497Z,502.00
2023-04-03T08:02:06.483Z,507.00
2023-04-03T08:03:06.847Z,521.00
2023-04-03T08:04:06.587Z,535.00
2023-04-03T08:05:06.689Z,517.00
2023-04-03T08:06:09.164Z,503.00
2023-04-03T08:07:07.559Z,503.00
2023-04-03T08:08:06.535Z,505.00
2023-04-03T08:09:06.528Z,511.00
2023-04-03T08:10:06.536Z,516.00
2023-04-03T08:11:06.507Z,508.00
2023-04-03T08:12:06.537Z,507.00
2023-04-03T08:13:06.519Z,514.00
2023-04-03T08:14:06.505Z,534.00
2023-04-03T08:15:06.502Z,530.00
2023-04-03T08:16:06.481Z,523.00
2023-04-03T08:17:06.549Z,511.00
2023-04-03T08:18:06.633Z,507.00
2023-04-03T08:19:09.696Z,516.00
2023-04-03T08:20:07.482Z,517.00
2023-04-03T08:21:06.476Z,519.00
2023-04-03T08:22:06.461Z,519.00
2023-04-03T08:23:06.454Z,513.00
2023-04-03T08:24:06.413Z,509.00
2023-04-03T08:25:06.434Z,521.00
2023-04-03T08:26:06.406Z,532.00
2023-04-03T08:27:06.392Z,528.00
2023-04-03T08:28:06.389Z,506.00
2023-04-03T08:29:06.511Z,503.00
2023-04-03T08:30:06.373Z,517.00
2023-04-03T08:31:06.446Z,522.00
2023-04-03T08:32:06.364Z,527.00
2023-04-03T08:33:06.424Z,506.00
2023-04-03T08:34:06.340Z,501.00
2023-04-03T08:35:06.349Z,501.00
2023-04-03T08:36:06.378Z,507.00
2023-04-03T08:37:06.349Z,510.00
2023-04-03T08:38:06.321Z,519.00
2023-04-03T08:39:06.340Z,505.00
2023-04-03T08:40:06.331Z,501.00
2023-04-03T08:41:06.321Z,507.00
2023-04-03T08:42:06.324Z,506.00
2023-04-03T08:43:06.318Z,519.00
2023-04-03T08:44:06.322Z,527.00
2023-04-03T08:45:06.297Z,509.00
2023-04-03T08:46:06.299Z,501.00
2023-04-03T08:47:06.284Z,509.00
2023-04-03T08:48:06.385Z,517.00
2023-04-03T08:49:06.284Z,529.00
2023-04-03T08:50:06.350Z,526.00
2023-04-03T08:51:10.841Z,511.00
2023-04-03T08:52:07.237Z,511.00
2023-04-03T08:53:06.247Z,508.00
2023-04-03T08:54:06.214Z,515.00
2023-04-03T08:55:06.205Z,522.00
2023-04-03T08:56:06.201Z,524.00
2023-04-03T08:57:06.273Z,509.00
2023-04-03T08:58:06.180Z,514.00
2023-04-03T08:59:06.280Z,525.00
2023-04-03T09:00:06.165Z,535.00
2023-04-03T09:01:06.149Z,544.00
2023-04-03T09:02:06.199Z,545.00
2023-04-03T09:03:06.151Z,563.00
2023-04-03T09:04:06.147Z,564.00
2023-04-03T09:05:06.108Z,568.00
2023-04-03T09:06:06.168Z,566.00
2023-04-03T09:07:06.078Z,572.00
2023-04-03T09:08:06.048Z,581.00
2023-04-03T09:09:06.075Z,579.00
2023-04-03T09:10:06.045Z,585.00
2023-04-03T09:11:06.020Z,585.00
2023-04-03T09:12:06.032Z,595.00
2023-04-03T09:13:06.004Z,592.00
2023-04-03T09:14:05.996Z,590.00
2023-04-03T09:15:06.012Z,594.00
2023-04-03T09:16:06.069Z,592.00
2023-04-03T09:17:05.991Z,596.00
2023-04-03T09:18:05.996Z,608.00
2023-04-03T09:19:05.991Z,605.00
2023-04-03T09:20:05.960Z,608.00
2023-04-03T09:21:05.955Z,614.00
2023-04-03T09:22:06.033Z,619.00
2023-04-03T09:23:05.928Z,616.00
2023-04-03T09:24:05.939Z,618.00
2023-04-03T09:25:05.911Z,619.00
2023-04-03T09:26:05.940Z,620.00
2023-04-03T09:27:05.937Z,621.00
2023-04-03T09:28:05.904Z,623.00
2023-04-03T09:29:05.885Z,627.00
2023-04-03T09:30:05.874Z,627.00
2023-04-03T09:31:05.893Z,639.00
2023-04-03T09:32:05.879Z,635.00
2023-04-03T09:33:06.015Z,636.00
2023-04-03T09:34:05.846Z,636.00
2023-04-03T09:35:18.916Z,633.00
2023-04-03T09:36:06.852Z,633.00
2023-04-03T09:37:05.810Z,634.00
2023-04-03T09:38:05.885Z,635.00
2023-04-03T09:39:05.796Z,635.00
2023-04-03T09:40:05.784Z,634.00
2023-04-03T09:41:05.830Z,638.00
2023-04-03T09:42:05.801Z,640.00
2023-04-03T09:43:05.758Z,637.00
2023-04-03T09:44:05.768Z,640.00
2023-04-03T09:45:05.737Z,641.00
2023-04-03T09:46:05.723Z,641.00
2023-04-03T09:47:05.752Z,641.00
2023-04-03T09:48:08.339Z,636.00
2023-04-03T09:49:09.573Z,647.00
2023-04-03T09:50:05.802Z,641.00
2023-04-03T09:51:05.665Z,642.00
2023-04-03T09:52:05.655Z,640.00
2023-04-03T09:53:05.647Z,641.00
2023-04-03T09:54:05.737Z,650.00
2023-04-03T09:55:05.614Z,644.00
2023-04-03T09:56:05.619Z,651.00
2023-04-03T09:57:05.599Z,652.00
2023-04-03T09:58:05.584Z,652.00
2023-04-03T09:59:05.584Z,656.00
2023-04-03T10:00:05.588Z,653.00
2023-04-03T10:01:05.592Z,651.00
2023-04-03T10:02:05.515Z,653.00
2023-04-03T10:03:05.580Z,657.00
2023-04-03T10:04:05.584Z,656.00
2023-04-03T10:05:10.037Z,657.00
2023-04-03T10:06:05.474Z,657.00
2023-04-03T10:07:05.453Z,657.00
2023-04-03T10:08:05.424Z,654.00
2023-04-03T10:09:05.422Z,654.00
2023-04-03T10:10:05.496Z,653.00
2023-04-03T10:11:05.398Z,650.00
2023-04-03T10:12:05.410Z,651.00
2023-04-03T10:13:05.368Z,646.00
2023-04-03T10:14:06.250Z,647.00
2023-04-03T10:15:05.377Z,647.00
2023-04-03T10:16:05.340Z,649.00
2023-04-03T10:17:05.428Z,651.00
2023-04-03T10:18:17.867Z,647.00
2023-04-03T10:19:06.293Z,647.00
2023-04-03T10:20:05.270Z,649.00
2023-04-03T10:21:07.556Z,649.00
2023-04-03T10:22:05.291Z,654.00
2023-04-03T10:23:05.346Z,659.00
2023-04-03T10:24:05.410Z,660.00
2023-04-03T10:25:05.412Z,661.00
2023-04-03T10:26:05.504Z,658.00
2023-04-03T10:27:05.435Z,661.00
2023-04-03T10:28:05.478Z,665.00
2023-04-03T10:29:05.518Z,662.00
2023-04-03T10:30:05.588Z,654.00
2023-04-03T10:31:05.685Z,655.00
2023-04-03T10:32:05.674Z,656.00
2023-04-03T10:33:05.786Z,655.00
2023-04-03T10:34:05.895Z,645.00
2023-04-03T10:35:05.853Z,644.00
2023-04-03T10:36:05.927Z,648.00
2023-04-03T10:37:05.913Z,651.00
2023-04-03T10:38:05.981Z,652.00
2023-04-03T10:39:06.024Z,649.00
2023-04-03T10:40:06.109Z,643.00
2023-04-03T10:41:06.108Z,653.00
2023-04-03T10:42:16.698Z,650.00
2023-04-03T10:43:07.151Z,650.00
2023-04-03T10:44:06.241Z,651.00
2023-04-03T10:45:06.171Z,650.00
2023-04-03T10:46:06.122Z,649.00
2023-04-03T10:47:06.092Z,653.00
2023-04-03T10:48:06.081Z,656.00
2023-04-03T10:49:06.049Z,656.00
2023-04-03T10:50:06.073Z,657.00
2023-04-03T10:51:06.029Z,656.00
2023-04-03T10:52:06.063Z,656.00
2023-04-03T10:53:05.994Z,661.00
2023-04-03T10:54:05.978Z,655.00
2023-04-03T10:55:06.090Z,655.00
2023-04-03T10:56:05.929Z,652.00
2023-04-03T10:57:12.724Z,655.00
2023-04-03T10:58:06.941Z,655.00
2023-04-03T10:59:05.901Z,655.00
2023-04-03T11:00:05.927Z,656.00
2023-04-03T11:01:05.912Z,659.00
2023-04-03T11:02:05.869Z,654.00
2023-04-03T11:03:05.884Z,655.00
2023-04-03T11:04:06.111Z,656.00
2023-04-03T11:05:05.872Z,657.00
2023-04-03T11:06:05.821Z,656.00
2023-04-03T11:07:05.799Z,660.00
2023-04-03T11:08:05.782Z,655.00
2023-04-03T11:09:05.764Z,655.00
2023-04-03T11:10:05.787Z,650.00
2023-04-03T11:11:05.828Z,662.00
2023-04-03T11:12:05.932Z,659.00
2023-04-03T11:13:05.958Z,649.00
2023-04-03T11:14:06.088Z,638.00
2023-04-03T11:15:06.072Z,626.00
2023-04-03T11:16:06.170Z,622.00
2023-04-03T11:17:06.102Z,622.00
2023-04-03T11:18:06.121Z,622.00
2023-04-03T11:19:06.157Z,615.00
2023-04-03T11:20:06.047Z,609.00
2023-04-03T11:21:06.053Z,603.00
2023-04-03T11:22:06.037Z,605.00
2023-04-03T11:23:06.052Z,598.00
2023-04-03T11:24:06.010Z,594.00
2023-04-03T11:25:05.986Z,593.00
2023-04-03T11:26:06.040Z,587.00
2023-04-03T11:27:06.015Z,585.00
2023-04-03T11:28:06.065Z,590.00
2023-04-03T11:29:06.132Z,601.00
2023-04-03T11:30:06.264Z,611.00
2023-04-03T11:31:06.309Z,615.00
2023-04-03T11:32:06.300Z,616.00
2023-04-03T11:33:06.403Z,616.00
2023-04-03T11:34:06.400Z,615.00
2023-04-03T11:35:06.492Z,618.00
2023-04-03T11:36:19.083Z,615.00
2023-04-03T11:37:07.510Z,615.00
2023-04-03T11:38:06.477Z,617.00
2023-04-03T11:39:06.478Z,618.00
2023-04-03T11:40:06.460Z,622.00
2023-04-03T11:41:06.543Z,630.00
2023-04-03T11:42:12.834Z,623.00
2023-04-03T11:43:07.440Z,624.00
2023-04-03T11:44:06.441Z,625.00
2023-04-03T11:45:06.411Z,624.00
2023-04-03T11:46:06.509Z,626.00
2023-04-03T11:47:06.472Z,628.00
2023-04-03T11:48:20.793Z,632.00
2023-04-03T11:49:07.353Z,624.00
2023-04-03T11:50:06.475Z,627.00
2023-04-03T11:51:06.397Z,630.00
2023-04-03T11:52:06.330Z,638.00
2023-04-03T11:53:06.326Z,650.00
2023-04-03T11:54:06.297Z,648.00
2023-04-03T11:55:06.295Z,649.00
2023-04-03T11:56:06.279Z,651.00
2023-04-03T11:57:06.307Z,647.00
2023-04-03T11:58:06.298Z,650.00
2023-04-03T11:59:06.299Z,648.00
2023-04-03T12:00:06.337Z,643.00
2023-04-03T12:01:06.360Z,649.00
2023-04-03T12:02:06.459Z,653.00
2023-04-03T12:03:06.467Z,647.00
2023-04-03T12:04:06.433Z,645.00
2023-04-03T12:05:06.342Z,643.00
2023-04-03T12:06:06.360Z,646.00
2023-04-03T12:07:06.355Z,638.00
2023-04-03T12:08:06.371Z,644.00
2023-04-03T12:09:06.367Z,647.00
2023-04-03T12:10:06.346Z,648.00
2023-04-03T12:11:06.339Z,647.00
2023-04-03T12:12:06.326Z,648.00
2023-04-03T12:13:06.364Z,646.00
2023-04-03T12:14:06.405Z,650.00
2023-04-03T12:15:06.438Z,648.00
2023-04-03T12:16:06.524Z,644.00
2023-04-03T12:17:06.606Z,648.00
2023-04-03T12:18:06.744Z,648.00
2023-04-03T12:19:06.654Z,650.00
2023-04-03T12:20:06.706Z,648.00
2023-04-03T12:21:06.774Z,653.00
2023-04-03T12:22:06.817Z,652.00
2023-04-03T12:23:07.258Z,654.00
2023-04-03T12:24:06.894Z,646.00
2023-04-03T12:25:06.935Z,650.00
2023-04-03T12:26:06.987Z,649.00
2023-04-03T12:27:07.027Z,657.00
2023-04-03T12:28:07.080Z,658.00
2023-04-03T12:29:07.138Z,657.00